createdAt,value
2019-04-30T00:01:55.697Z,17.23
2019-04-30T00:03:59.667Z,16.10
2019-04-30T00:06:07.171Z,19.53
2019-04-30T00:08:11.354Z,22.63
2019-04-30T00:10:16.322Z,24.97
2019-04-30T00:12:21.735Z,21.90
2019-04-30T00:14:32.082Z,26.10
2019-04-30T00:16:38.379Z,17.90
2019-04-30T00:18:55.187Z,26.53
2019-04-30T00:20:47.071Z,26.20
2019-04-30T00:22:51.994Z,17.87
2019-04-30T00:24:56.714Z,20.57
2019-04-30T00:27:02.657Z,18.33
2019-04-30T00:29:07.461Z,20.57
2019-04-30T00:31:12.377Z,18.73
2019-04-30T00:33:22.225Z,24.77
2019-04-30T00:35:25.385Z,23.40
2019-04-30T00:37:30.382Z,18.13
2019-04-30T00:39:35.624Z,19.17
2019-04-30T00:41:44.092Z,22.03
2019-04-30T00:43:50.682Z,21.23
2019-04-30T00:45:55.128Z,23.07
2019-04-30T00:48:00.250Z,18.67
2019-04-30T00:50:05.556Z,17.87
2019-04-30T00:52:10.554Z,19.83
2019-04-30T00:54:17.695Z,19.37
2019-04-30T00:56:24.805Z,15.73
2019-04-30T00:58:30.168Z,16.77
2019-04-30T01:00:40.974Z,15.87
2019-04-30T01:03:08.121Z,19.67
2019-04-30T01:05:15.697Z,18.33
2019-04-30T01:07:20.701Z,16.87
2019-04-30T01:09:25.801Z,18.50
2019-04-30T01:11:30.738Z,21.57
2019-04-30T01:13:35.484Z,19.43
2019-04-30T01:15:43.917Z,17.20
2019-04-30T01:17:51.007Z,16.13
2019-04-30T01:19:54.471Z,14.23
2019-04-30T01:21:59.511Z,15.47
2019-04-30T01:24:04.230Z,15.10
2019-04-30T01:26:09.086Z,17.03
2019-04-30T01:28:16.537Z,16.23
2019-04-30T01:30:22.820Z,19.90
2019-04-30T01:32:29.238Z,13.50
2019-04-30T01:34:33.967Z,15.60
2019-04-30T01:36:39.228Z,15.40
2019-04-30T01:38:44.750Z,18.43
2019-04-30T01:40:51.128Z,14.50
2019-04-30T01:42:56.069Z,16.73
2019-04-30T01:45:02.113Z,16.33
2019-04-30T01:47:08.623Z,13.40
2019-04-30T01:49:13.616Z,14.83
2019-04-30T01:51:21.795Z,14.67
2019-04-30T01:53:24.939Z,19.60
2019-04-30T01:55:49.418Z,14.00
2019-04-30T01:58:01.656Z,17.27
2019-04-30T02:00:25.539Z,18.13
2019-04-30T02:02:32.057Z,16.57
2019-04-30T02:04:36.751Z,14.87
2019-04-30T02:06:43.195Z,13.47
2019-04-30T02:08:49.367Z,18.77
2019-04-30T02:10:56.041Z,15.90
2019-04-30T02:13:01.056Z,14.90
2019-04-30T02:15:06.009Z,16.50
2019-04-30T02:17:10.992Z,16.27
2019-04-30T02:19:15.775Z,15.67
2019-04-30T02:21:20.545Z,16.27
2019-04-30T02:23:25.408Z,15.37
2019-04-30T02:25:30.206Z,14.30
2019-04-30T02:27:35.920Z,12.07
2019-04-30T02:29:40.708Z,15.17
2019-04-30T02:31:45.825Z,15.17
2019-04-30T02:33:53.305Z,12.90
2019-04-30T02:36:19.681Z,13.37
2019-04-30T02:38:42.674Z,16.17
2019-04-30T02:40:49.911Z,15.07
2019-04-30T02:42:57.845Z,17.33
2019-04-30T02:45:03.701Z,12.47
2019-04-30T02:47:10.153Z,16.10
2019-04-30T02:49:14.685Z,14.40
2019-04-30T02:51:20.105Z,16.97
2019-04-30T02:53:52.613Z,15.43
2019-04-30T02:55:59.524Z,18.43
2019-04-30T02:58:03.961Z,12.20
2019-04-30T03:00:14.226Z,14.90
2019-04-30T03:02:21.198Z,14.47
2019-04-30T03:04:26.056Z,18.47
2019-04-30T03:06:30.794Z,14.53
2019-04-30T03:08:35.621Z,11.60
2019-04-30T03:10:40.398Z,12.30
2019-04-30T03:12:45.250Z,14.47
2019-04-30T03:14:50.325Z,16.00
2019-04-30T03:17:02.160Z,14.23
2019-04-30T03:19:15.172Z,11.23
2019-04-30T03:21:40.487Z,13.70
2019-04-30T03:23:45.336Z,16.10
2019-04-30T03:25:50.284Z,14.27
2019-04-30T03:27:56.242Z,14.73
2019-04-30T03:30:00.958Z,13.17
2019-04-30T03:32:06.746Z,14.53
2019-04-30T03:34:17.550Z,13.47
2019-04-30T03:36:21.727Z,13.60
2019-04-30T03:38:24.432Z,12.40
2019-04-30T03:40:30.224Z,13.10
2019-04-30T03:42:35.139Z,15.10
2019-04-30T03:44:40.285Z,12.77
2019-04-30T03:46:45.210Z,11.87
2019-04-30T03:48:50.463Z,14.43
2019-04-30T03:50:56.950Z,13.40
2019-04-30T03:53:01.964Z,14.47
2019-04-30T03:55:09.076Z,13.20
2019-04-30T03:57:13.443Z,13.80
2019-04-30T03:59:19.956Z,12.70
2019-04-30T04:01:33.038Z,11.17
2019-04-30T04:03:56.794Z,14.17
2019-04-30T04:06:21.566Z,18.20
2019-04-30T04:08:39.531Z,12.37
2019-04-30T04:10:52.996Z,13.60
2019-04-30T04:12:59.586Z,14.53
2019-04-30T04:15:04.113Z,12.10
2019-04-30T04:17:09.902Z,17.00
2019-04-30T04:19:14.926Z,17.23
2019-04-30T04:21:20.677Z,16.97
2019-04-30T04:23:25.713Z,11.97
2019-04-30T04:25:30.447Z,12.23
2019-04-30T04:27:35.280Z,13.03
2019-04-30T04:29:41.263Z,14.07
2019-04-30T04:31:46.201Z,11.27
2019-04-30T04:33:52.680Z,11.10
2019-04-30T04:35:59.809Z,14.70
2019-04-30T04:38:04.272Z,13.13
2019-04-30T04:40:09.474Z,11.47
2019-04-30T04:42:14.393Z,13.53
2019-04-30T04:44:20.310Z,14.73
2019-04-30T04:46:25.410Z,10.83
2019-04-30T04:48:30.335Z,14.07
2019-04-30T04:50:35.291Z,13.33
2019-04-30T04:52:40.233Z,14.70
2019-04-30T04:54:45.103Z,13.27
2019-04-30T04:56:53.179Z,10.73
2019-04-30T04:58:56.354Z,13.60
2019-04-30T05:01:01.146Z,15.00
2019-04-30T05:03:11.621Z,12.73
2019-04-30T05:05:16.642Z,9.80
2019-04-30T05:07:21.614Z,12.33
2019-04-30T05:09:26.434Z,12.97
2019-04-30T05:11:31.627Z,15.33
2019-04-30T05:13:36.784Z,13.63
2019-04-30T05:15:41.695Z,17.30
2019-04-30T05:17:46.539Z,13.13
2019-04-30T05:19:51.283Z,12.47
2019-04-30T05:21:56.133Z,11.03
2019-04-30T05:24:01.060Z,13.13
2019-04-30T05:26:05.805Z,14.60
2019-04-30T05:28:10.657Z,13.43
2019-04-30T05:30:15.530Z,11.73
2019-04-30T05:32:20.435Z,15.27
2019-04-30T05:34:25.214Z,18.03
2019-04-30T05:36:30.164Z,16.60
2019-04-30T05:38:35.065Z,17.47
2019-04-30T05:40:42.433Z,19.07
2019-04-30T05:42:46.388Z,15.40
2019-04-30T05:44:51.179Z,16.67
2019-04-30T05:46:55.986Z,22.73
2019-04-30T05:49:00.895Z,22.67
2019-04-30T05:51:05.635Z,25.80
2019-04-30T05:53:11.521Z,34.97
2019-04-30T05:55:17.063Z,40.50
2019-04-30T05:57:21.858Z,33.30
2019-04-30T05:59:28.804Z,32.80
2019-04-30T06:01:33.345Z,28.93
2019-04-30T06:03:38.625Z,25.90
2019-04-30T06:05:43.533Z,33.63
2019-04-30T06:07:49.556Z,29.33
2019-04-30T06:10:14.490Z,27.47
2019-04-30T06:12:28.974Z,29.83
2019-04-30T06:14:49.081Z,29.83
2019-04-30T06:17:11.742Z,30.07
2019-04-30T06:19:16.573Z,24.90
2019-04-30T06:21:21.706Z,21.90
2019-04-30T06:23:26.860Z,26.93
2019-04-30T06:25:41.304Z,22.17
2019-04-30T06:27:38.735Z,27.40
2019-04-30T06:29:43.719Z,31.47
2019-04-30T06:31:48.720Z,23.80
2019-04-30T06:33:53.673Z,24.87
2019-04-30T06:35:59.075Z,22.27
2019-04-30T06:38:04.045Z,17.77
2019-04-30T06:40:09.403Z,22.30
2019-04-30T06:42:15.450Z,18.33
2019-04-30T06:44:21.206Z,20.33
2019-04-30T06:46:26.165Z,19.77
2019-04-30T06:48:30.940Z,22.73
2019-04-30T06:50:35.933Z,19.10
2019-04-30T06:52:40.685Z,22.53
2019-04-30T06:54:45.445Z,17.50
2019-04-30T06:56:50.433Z,25.90
2019-04-30T06:58:56.398Z,21.93
2019-04-30T07:01:01.298Z,22.03
2019-04-30T07:03:06.287Z,18.80
2019-04-30T07:05:11.986Z,26.73
2019-04-30T07:07:19.281Z,18.87
2019-04-30T07:09:39.847Z,18.23
2019-04-30T07:11:41.069Z,20.03
2019-04-30T07:13:49.545Z,21.90
2019-04-30T07:15:55.151Z,20.33
2019-04-30T07:18:00.045Z,16.87
2019-04-30T07:20:05.282Z,16.77
2019-04-30T07:22:10.245Z,17.20
2019-04-30T07:24:15.194Z,16.40
2019-04-30T07:26:24.459Z,15.97
2019-04-30T07:28:43.135Z,12.63
2019-04-30T07:30:34.191Z,16.17
2019-04-30T07:32:38.933Z,18.27
2019-04-30T07:34:43.845Z,17.30
2019-04-30T07:37:10.427Z,14.53
2019-04-30T07:38:56.926Z,15.43
2019-04-30T07:41:02.659Z,20.73
2019-04-30T07:43:09.030Z,21.30
2019-04-30T07:45:14.023Z,15.17
2019-04-30T07:47:19.504Z,17.57
2019-04-30T07:49:24.709Z,13.37
2019-04-30T07:51:32.069Z,18.43
2019-04-30T07:53:36.228Z,14.63
2019-04-30T07:55:41.065Z,13.87
2019-04-30T07:57:45.877Z,13.07
2019-04-30T07:59:50.635Z,14.70
2019-04-30T08:02:06.450Z,16.80
2019-04-30T08:04:21.113Z,13.27
2019-04-30T08:06:26.523Z,16.67
2019-04-30T08:08:31.390Z,17.70
2019-04-30T08:10:36.185Z,13.83
2019-04-30T08:12:43.507Z,13.40
2019-04-30T08:14:49.427Z,12.17
2019-04-30T08:16:53.986Z,14.07
2019-04-30T08:18:59.224Z,13.40
2019-04-30T08:21:04.175Z,13.70
2019-04-30T08:23:20.300Z,13.33
2019-04-30T08:25:18.927Z,13.80
2019-04-30T08:27:24.374Z,12.13
2019-04-30T08:29:29.528Z,14.00
2019-04-30T08:31:34.536Z,12.33
2019-04-30T08:33:40.227Z,11.57
2019-04-30T08:35:45.374Z,13.87
2019-04-30T08:37:50.166Z,10.97
2019-04-30T08:39:54.974Z,14.33
2019-04-30T08:42:00.769Z,14.33
2019-04-30T08:44:06.833Z,12.87
2019-04-30T08:46:11.812Z,13.70
2019-04-30T08:48:18.989Z,12.20
2019-04-30T08:50:23.951Z,8.90
2019-04-30T08:52:30.499Z,10.73
2019-04-30T08:54:35.362Z,14.43
2019-04-30T08:56:40.118Z,10.93
2019-04-30T08:58:49.504Z,10.57
2019-04-30T09:00:54.276Z,10.67
2019-04-30T09:02:59.890Z,10.80
2019-04-30T09:05:10.802Z,10.70
2019-04-30T09:08:10.888Z,11.03
2019-04-30T09:10:19.110Z,11.67
2019-04-30T09:12:23.858Z,9.10
2019-04-30T09:14:30.952Z,9.40
2019-04-30T09:16:36.001Z,16.67
2019-04-30T09:18:41.292Z,12.27
2019-04-30T09:20:46.714Z,10.10
2019-04-30T09:22:51.652Z,10.63
2019-04-30T09:24:56.567Z,9.80
2019-04-30T09:27:01.762Z,9.27
2019-04-30T09:29:06.733Z,11.17
2019-04-30T09:31:13.269Z,10.57
2019-04-30T09:33:19.418Z,12.83
2019-04-30T09:35:24.892Z,10.03
2019-04-30T09:37:30.605Z,8.83
2019-04-30T09:39:35.922Z,9.53
2019-04-30T09:41:41.163Z,9.87
2019-04-30T09:43:46.028Z,9.37
2019-04-30T09:45:50.815Z,10.47
2019-04-30T09:47:55.595Z,11.67
2019-04-30T09:50:00.396Z,9.07
2019-04-30T09:52:05.679Z,10.27
2019-04-30T09:54:12.797Z,8.60
2019-04-30T09:56:18.898Z,10.17
2019-04-30T09:58:23.888Z,9.30
2019-04-30T10:00:29.469Z,8.67
2019-04-30T10:02:34.462Z,8.53
2019-04-30T10:04:39.965Z,9.10
2019-04-30T10:06:45.330Z,8.47
2019-04-30T10:08:51.315Z,8.43
2019-04-30T10:11:16.561Z,7.20
2019-04-30T10:13:21.329Z,10.47
2019-04-30T10:15:34.971Z,9.83
2019-04-30T10:17:41.650Z,8.53
2019-04-30T10:19:49.202Z,9.13
2019-04-30T10:21:54.248Z,10.23
2019-04-30T10:24:12.310Z,9.27
2019-04-30T10:26:08.318Z,9.97
2019-04-30T10:28:13.201Z,8.53
2019-04-30T10:30:21.486Z,9.20
2019-04-30T10:32:26.339Z,9.60
2019-04-30T10:34:31.200Z,8.63
2019-04-30T10:36:36.113Z,9.53
2019-04-30T10:38:40.903Z,8.50
2019-04-30T10:40:45.692Z,8.93
2019-04-30T10:42:50.632Z,7.47
2019-04-30T10:44:55.421Z,8.93
2019-04-30T10:47:00.183Z,8.37
2019-04-30T10:49:05.071Z,9.50
2019-04-30T10:51:09.937Z,7.13
2019-04-30T10:53:14.837Z,9.90
2019-04-30T10:55:31.737Z,7.27
2019-04-30T10:57:36.485Z,7.40
2019-04-30T10:59:41.236Z,7.20
2019-04-30T11:01:45.966Z,8.17
2019-04-30T11:03:50.756Z,8.27
2019-04-30T11:05:55.492Z,8.10
2019-04-30T11:08:00.284Z,9.37
2019-04-30T11:10:05.591Z,7.70
2019-04-30T11:12:10.431Z,7.73
2019-04-30T11:14:15.376Z,8.17
2019-04-30T11:16:20.253Z,6.77
2019-04-30T11:18:25.188Z,7.53
2019-04-30T11:20:30.338Z,8.27
2019-04-30T11:22:35.568Z,9.53
2019-04-30T11:24:54.021Z,8.40
2019-04-30T11:26:49.684Z,9.53
2019-04-30T11:28:53.843Z,7.03
2019-04-30T11:31:18.095Z,9.83
2019-04-30T11:33:24.244Z,8.20
2019-04-30T11:35:29.817Z,6.33
2019-04-30T11:37:34.521Z,9.07
2019-04-30T11:39:39.558Z,9.43
2019-04-30T11:41:44.400Z,7.83
2019-04-30T11:43:49.669Z,7.87
2019-04-30T11:46:33.185Z,8.20
2019-04-30T11:48:38.740Z,6.97
2019-04-30T11:50:43.680Z,8.70
2019-04-30T11:52:48.451Z,7.77
2019-04-30T11:54:54.596Z,8.13
2019-04-30T11:57:00.243Z,8.27
2019-04-30T11:59:05.984Z,7.60
2019-04-30T12:01:12.174Z,7.57
2019-04-30T12:03:19.200Z,9.77
2019-04-30T12:05:24.121Z,8.87
2019-04-30T12:07:50.732Z,7.70
2019-04-30T12:10:10.809Z,8.20
2019-04-30T12:12:15.617Z,9.53
2019-04-30T12:14:20.544Z,7.63
2019-04-30T12:16:25.220Z,6.40
2019-04-30T12:18:29.999Z,7.13
2019-04-30T12:20:34.972Z,6.40
2019-04-30T12:22:40.015Z,6.60
2019-04-30T12:24:46.042Z,6.83
2019-04-30T12:26:50.874Z,6.80
2019-04-30T12:28:55.825Z,6.20
2019-04-30T12:31:00.679Z,7.87
2019-04-30T12:33:05.772Z,6.37
2019-04-30T12:35:10.750Z,6.90
2019-04-30T12:37:15.769Z,7.70
2019-04-30T12:39:20.545Z,6.57
2019-04-30T12:41:25.402Z,7.23
2019-04-30T12:43:30.381Z,7.70
2019-04-30T12:45:35.547Z,7.13
2019-04-30T12:47:44.695Z,8.57
2019-04-30T12:50:01.779Z,7.00
2019-04-30T12:52:12.757Z,7.10
2019-04-30T12:54:26.567Z,7.57
2019-04-30T12:56:44.941Z,7.43
2019-04-30T12:58:50.022Z,6.43
2019-04-30T13:00:54.991Z,7.83
2019-04-30T13:02:59.845Z,6.87
2019-04-30T13:05:05.364Z,7.27
2019-04-30T13:07:10.977Z,6.73
2019-04-30T13:09:19.841Z,6.50
2019-04-30T13:11:24.207Z,7.80
2019-04-30T13:13:31.951Z,8.33
2019-04-30T13:15:37.449Z,7.90
2019-04-30T13:17:42.210Z,5.90
2019-04-30T13:19:47.052Z,6.80
2019-04-30T13:21:51.924Z,7.23
2019-04-30T13:23:57.050Z,7.53
2019-04-30T13:26:01.947Z,5.90
2019-04-30T13:28:11.459Z,7.33
2019-04-30T13:30:20.656Z,6.90
2019-04-30T13:32:30.269Z,6.13
2019-04-30T13:34:45.437Z,6.03
2019-04-30T13:36:50.236Z,5.73
2019-04-30T13:39:01.118Z,6.37
2019-04-30T13:41:13.485Z,7.67
2019-04-30T13:43:20.139Z,7.00
2019-04-30T13:45:25.606Z,6.67
2019-04-30T13:47:30.662Z,7.17
2019-04-30T13:49:36.424Z,7.43
2019-04-30T13:51:42.927Z,6.67
2019-04-30T13:53:47.820Z,6.67
2019-04-30T13:55:52.611Z,8.60
2019-04-30T13:57:57.413Z,6.27
2019-04-30T14:00:02.199Z,6.00
2019-04-30T14:02:08.795Z,6.50
2019-04-30T14:04:26.997Z,7.67
2019-04-30T14:06:33.522Z,5.57
2019-04-30T14:08:42.697Z,6.20
2019-04-30T14:10:49.361Z,5.63
2019-04-30T14:12:57.637Z,7.03
2019-04-30T14:15:09.208Z,8.13
2019-04-30T14:17:13.620Z,5.73
2019-04-30T14:19:19.523Z,7.43
2019-04-30T14:21:35.043Z,6.63
2019-04-30T14:23:31.163Z,6.03
2019-04-30T14:25:36.085Z,6.30
2019-04-30T14:27:49.390Z,6.10
2019-04-30T14:29:49.387Z,5.77
2019-04-30T14:31:53.736Z,6.43
2019-04-30T14:33:59.321Z,5.30
2019-04-30T14:36:04.206Z,5.50
2019-04-30T14:38:09.958Z,5.80
2019-04-30T14:40:15.217Z,6.27
2019-04-30T14:42:21.264Z,6.43
2019-04-30T14:44:31.191Z,5.60
2019-04-30T14:46:46.079Z,5.60
2019-04-30T14:48:54.926Z,5.40
2019-04-30T14:51:00.343Z,7.10
2019-04-30T14:53:14.226Z,5.20
2019-04-30T14:55:39.360Z,5.73
2019-04-30T14:58:03.396Z,6.00
2019-04-30T15:00:27.186Z,5.50
2019-04-30T15:02:38.706Z,6.13
2019-04-30T15:04:43.493Z,7.50
2019-04-30T15:06:48.800Z,7.40
2019-04-30T15:08:53.735Z,6.00
2019-04-30T15:10:58.481Z,6.63
2019-04-30T15:13:03.186Z,6.00
2019-04-30T15:15:09.940Z,7.80
2019-04-30T15:17:15.744Z,6.87
2019-04-30T15:19:21.000Z,5.97
2019-04-30T15:21:25.910Z,5.87
2019-04-30T15:23:41.849Z,5.20
2019-04-30T15:25:48.551Z,5.30
2019-04-30T15:27:53.306Z,6.33
2019-04-30T15:29:58.089Z,5.70
2019-04-30T15:32:03.036Z,5.83
2019-04-30T15:34:11.068Z,6.03
2019-04-30T15:36:16.142Z,5.33
2019-04-30T15:38:23.689Z,6.83
2019-04-30T15:40:32.271Z,6.00
2019-04-30T15:42:41.682Z,5.67
2019-04-30T15:44:46.760Z,6.17
2019-04-30T15:46:52.067Z,7.60
2019-04-30T15:48:56.983Z,10.23
2019-04-30T15:51:02.352Z,8.10
2019-04-30T15:53:09.371Z,9.57
2019-04-30T15:55:14.410Z,12.87
2019-04-30T15:57:19.693Z,10.93
2019-04-30T15:59:34.772Z,10.87
2019-04-30T16:01:42.273Z,9.80
2019-04-30T16:03:48.800Z,13.70
2019-04-30T16:05:54.464Z,7.90
2019-04-30T16:08:33.616Z,14.10
2019-04-30T16:11:00.449Z,7.23
2019-04-30T16:13:11.607Z,10.20
2019-04-30T16:15:18.486Z,14.27
2019-04-30T16:17:25.157Z,14.37
2019-04-30T16:19:30.592Z,7.60
2019-04-30T16:21:35.968Z,15.30
2019-04-30T16:23:41.016Z,11.80
2019-04-30T16:25:45.859Z,15.57
2019-04-30T16:27:52.062Z,16.27
2019-04-30T16:29:57.055Z,11.97
2019-04-30T16:32:01.987Z,11.73
2019-04-30T16:34:06.931Z,10.07
2019-04-30T16:36:12.594Z,9.27
2019-04-30T16:38:20.887Z,15.60
2019-04-30T16:40:25.382Z,17.03
2019-04-30T16:42:30.490Z,12.40
2019-04-30T16:44:35.373Z,12.37
2019-04-30T16:46:40.275Z,8.77
2019-04-30T16:48:44.990Z,10.33
2019-04-30T16:50:51.246Z,10.80
2019-04-30T16:52:56.261Z,15.00
2019-04-30T16:55:01.078Z,11.20
2019-04-30T16:57:06.897Z,12.87
2019-04-30T16:59:15.340Z,16.27
2019-04-30T17:01:21.759Z,9.87
2019-04-30T17:03:33.861Z,9.13
2019-04-30T17:05:49.973Z,14.13
2019-04-30T17:08:06.438Z,9.93
2019-04-30T17:10:18.984Z,14.23
2019-04-30T17:12:30.182Z,13.50
2019-04-30T17:14:38.522Z,15.43
2019-04-30T17:16:43.646Z,17.63
2019-04-30T17:18:50.065Z,17.10
2019-04-30T17:20:55.757Z,12.77
2019-04-30T17:23:00.645Z,13.80
2019-04-30T17:25:05.635Z,13.27
2019-04-30T17:27:19.253Z,15.17
2019-04-30T17:29:19.493Z,11.83
2019-04-30T17:31:24.356Z,31.33
2019-04-30T17:33:29.241Z,14.60
2019-04-30T17:35:34.290Z,15.87
2019-04-30T17:37:39.234Z,12.97
2019-04-30T17:39:44.086Z,14.17
2019-04-30T17:41:49.020Z,16.23
2019-04-30T17:43:54.271Z,16.83
2019-04-30T17:45:59.114Z,13.17
2019-04-30T17:48:04.180Z,13.73
2019-04-30T17:50:10.582Z,15.37
2019-04-30T17:52:16.285Z,19.70
2019-04-30T17:54:21.596Z,19.00
2019-04-30T17:56:27.428Z,21.77
2019-04-30T17:58:35.811Z,18.57
2019-04-30T18:00:44.484Z,16.73
2019-04-30T18:02:49.673Z,22.23
2019-04-30T18:04:54.993Z,22.33
2019-04-30T18:07:00.888Z,16.87
2019-04-30T18:09:10.820Z,20.47
2019-04-30T18:11:14.842Z,19.50
2019-04-30T18:13:24.915Z,21.43
2019-04-30T18:15:32.056Z,20.63
2019-04-30T18:17:36.805Z,18.87
2019-04-30T18:20:00.724Z,19.17
2019-04-30T18:22:10.234Z,17.53
2019-04-30T18:24:34.134Z,16.57
2019-04-30T18:26:55.763Z,18.57
2019-04-30T18:29:00.616Z,20.13
2019-04-30T18:31:05.654Z,18.20
2019-04-30T18:33:10.464Z,21.20
2019-04-30T18:35:15.573Z,20.77
2019-04-30T18:37:20.634Z,17.83
2019-04-30T18:39:28.779Z,20.60
2019-04-30T18:41:33.269Z,22.47
2019-04-30T18:43:40.368Z,15.83
2019-04-30T18:45:44.695Z,16.93
2019-04-30T18:47:49.454Z,21.57
2019-04-30T18:49:55.939Z,19.70
2019-04-30T18:52:00.869Z,29.80
2019-04-30T18:54:05.835Z,26.50
2019-04-30T18:56:14.792Z,28.73
2019-04-30T18:58:19.711Z,24.23
2019-04-30T19:00:31.414Z,32.17
2019-04-30T19:02:38.363Z,36.37
2019-04-30T19:04:43.044Z,30.27
2019-04-30T19:06:47.854Z,30.80
2019-04-30T19:09:11.733Z,22.83
2019-04-30T19:11:35.964Z,24.07
2019-04-30T19:13:54.677Z,21.93
2019-04-30T19:16:24.761Z,27.13
2019-04-30T19:18:31.823Z,29.73
2019-04-30T19:20:42.248Z,28.13
2019-04-30T19:22:47.359Z,25.77
2019-04-30T19:24:58.430Z,27.90
2019-04-30T19:26:59.172Z,27.27
2019-04-30T19:29:04.215Z,34.97
2019-04-30T19:31:11.600Z,35.20
2019-04-30T19:33:15.873Z,33.43
2019-04-30T19:35:21.241Z,37.83
2019-04-30T19:37:26.122Z,24.97
2019-04-30T19:39:32.509Z,25.10
2019-04-30T19:41:38.657Z,33.37
2019-04-30T19:43:46.211Z,29.87
2019-04-30T19:45:51.342Z,33.10
2019-04-30T19:47:56.239Z,27.00
2019-04-30T19:50:02.342Z,21.67
2019-04-30T19:52:11.594Z,28.90
2019-04-30T19:54:15.472Z,24.53
2019-04-30T19:56:20.702Z,21.70
2019-04-30T19:58:37.977Z,23.83
2019-04-30T20:00:33.841Z,26.57
2019-04-30T20:02:39.218Z,26.43
2019-04-30T20:04:44.252Z,21.20
2019-04-30T20:06:50.361Z,24.27
2019-04-30T20:08:55.408Z,16.47
2019-04-30T20:11:00.480Z,19.17
2019-04-30T20:13:11.978Z,20.73
2019-04-30T20:15:24.287Z,16.67
2019-04-30T20:17:33.436Z,29.77
2019-04-30T20:19:45.880Z,21.63
2019-04-30T20:21:53.988Z,21.17
2019-04-30T20:23:59.362Z,22.73
2019-04-30T20:26:05.560Z,24.53
2019-04-30T20:28:13.089Z,20.20
2019-04-30T20:30:25.561Z,20.27
2019-04-30T20:32:39.024Z,17.13
2019-04-30T20:34:45.884Z,12.33
2019-04-30T20:36:51.480Z,20.60
2019-04-30T20:39:15.999Z,21.87
2019-04-30T20:41:24.744Z,20.33
2019-04-30T20:43:33.292Z,21.67
2019-04-30T20:45:40.272Z,17.03
2019-04-30T20:47:45.878Z,15.00
2019-04-30T20:49:53.360Z,19.43
2019-04-30T20:51:59.453Z,22.90
2019-04-30T20:54:04.631Z,19.37
2019-04-30T20:56:19.200Z,16.70
2019-04-30T20:58:26.983Z,17.73
2019-04-30T21:00:32.724Z,26.40
2019-04-30T21:02:38.723Z,16.87
2019-04-30T21:04:44.054Z,16.07
2019-04-30T21:06:49.643Z,15.43
2019-04-30T21:08:55.242Z,13.70
2019-04-30T21:11:00.965Z,18.30
2019-04-30T21:13:06.161Z,13.97
2019-04-30T21:15:11.158Z,17.77
2019-04-30T21:17:16.637Z,13.13
2019-04-30T21:19:21.614Z,14.40
2019-04-30T21:21:28.726Z,13.33
2019-04-30T21:23:36.126Z,23.57
2019-04-30T21:25:44.339Z,17.67
2019-04-30T21:27:50.611Z,17.23
2019-04-30T21:29:55.611Z,15.07
2019-04-30T21:32:13.386Z,14.00
2019-04-30T21:34:29.362Z,13.43
2019-04-30T21:36:34.672Z,21.23
2019-04-30T21:38:40.731Z,13.53
2019-04-30T21:40:46.286Z,18.53
2019-04-30T21:42:51.354Z,16.00
2019-04-30T21:44:56.673Z,19.30
2019-04-30T21:47:01.592Z,15.30
2019-04-30T21:49:08.907Z,11.87
2019-04-30T21:51:14.234Z,14.63
2019-04-30T21:53:19.535Z,14.53
2019-04-30T21:55:24.791Z,15.30
2019-04-30T21:57:29.823Z,17.30
2019-04-30T21:59:34.716Z,14.63
2019-04-30T22:01:39.791Z,14.67
2019-04-30T22:03:45.006Z,13.30
2019-04-30T22:05:49.810Z,14.53
2019-04-30T22:07:54.825Z,15.50
2019-04-30T22:10:00.567Z,13.37
2019-04-30T22:12:05.652Z,12.87
2019-04-30T22:14:10.562Z,13.17
2019-04-30T22:16:15.374Z,14.53
2019-04-30T22:18:20.193Z,14.90
2019-04-30T22:20:24.955Z,11.50
2019-04-30T22:22:29.824Z,13.50
2019-04-30T22:24:34.784Z,12.70
2019-04-30T22:26:39.695Z,12.33
2019-04-30T22:28:44.748Z,10.40
2019-04-30T22:30:50.529Z,15.53
2019-04-30T22:32:55.378Z,15.17
2019-04-30T22:35:19.150Z,15.97
2019-04-30T22:37:24.116Z,13.67
2019-04-30T22:39:39.705Z,22.00
2019-04-30T22:41:44.563Z,18.20
2019-04-30T22:43:49.386Z,13.20
2019-04-30T22:46:00.079Z,15.20
2019-04-30T22:48:05.005Z,17.87
2019-04-30T22:50:10.205Z,17.77
2019-04-30T22:52:17.220Z,15.73
2019-04-30T22:54:24.006Z,15.00
2019-04-30T22:56:28.966Z,13.23
2019-04-30T22:58:33.717Z,25.13
2019-04-30T23:00:42.468Z,11.27
2019-04-30T23:03:06.486Z,16.07
2019-04-30T23:05:14.134Z,13.33
2019-04-30T23:07:19.061Z,10.67
2019-04-30T23:09:23.851Z,17.57
2019-04-30T23:11:28.997Z,13.10
2019-04-30T23:13:33.944Z,16.27
2019-04-30T23:15:39.331Z,12.33
2019-04-30T23:17:44.494Z,14.03
2019-04-30T23:19:49.783Z,12.27
2019-04-30T23:21:54.886Z,15.97
2019-04-30T23:23:59.966Z,21.37
2019-04-30T23:26:04.894Z,11.87
2019-04-30T23:28:09.777Z,13.90
2019-04-30T23:30:14.822Z,10.53
2019-04-30T23:32:19.886Z,13.83
2019-04-30T23:34:24.873Z,15.57
2019-04-30T23:36:29.843Z,12.57
2019-04-30T23:38:34.965Z,12.00
2019-04-30T23:40:59.208Z,15.17
2019-04-30T23:43:04.219Z,16.43
2019-04-30T23:45:09.247Z,12.43
2019-04-30T23:47:14.173Z,15.90
2019-04-30T23:49:19.253Z,8.77
2019-04-30T23:51:24.041Z,16.13
2019-04-30T23:53:28.786Z,15.03
2019-04-30T23:55:33.671Z,16.47
2019-04-30T23:57:38.426Z,12.67
2019-04-30T23:59:43.252Z,11.73
